createdAt,value
2022-11-07T00:00:55.139Z,90.81
2022-11-07T00:03:13.413Z,91.42
2022-11-07T00:05:30.674Z,90.10
2022-11-07T00:07:48.006Z,91.35
2022-11-07T00:10:05.278Z,91.13
2022-11-07T00:12:23.620Z,91.08
2022-11-07T00:14:40.650Z,90.41
2022-11-07T00:16:58.059Z,91.44
2022-11-07T00:19:16.012Z,91.45
2022-11-07T00:21:33.072Z,91.38
2022-11-07T00:23:50.431Z,91.26
2022-11-07T00:26:07.673Z,90.10
2022-11-07T00:28:24.668Z,90.00
2022-11-07T00:30:41.712Z,90.25
2022-11-07T00:33:00.273Z,90.38
2022-11-07T00:35:17.956Z,90.70
2022-11-07T00:37:34.942Z,91.30
2022-11-07T00:39:51.919Z,90.20
2022-11-07T00:42:08.970Z,90.67
2022-11-07T00:44:25.966Z,90.08
2022-11-07T00:46:43.022Z,90.64
2022-11-07T00:49:00.369Z,91.45
2022-11-07T00:51:17.247Z,91.67
2022-11-07T00:53:34.207Z,92.02
2022-11-07T00:55:51.786Z,91.85
2022-11-07T00:58:13.599Z,92.00
2022-11-07T01:00:31.618Z,92.31
2022-11-07T01:02:48.735Z,92.73
2022-11-07T01:05:05.936Z,92.45
2022-11-07T01:07:23.414Z,93.52
2022-11-07T01:09:40.456Z,92.52
2022-11-07T01:11:57.478Z,93.03
2022-11-07T01:14:14.403Z,92.94
2022-11-07T01:16:31.457Z,93.30
2022-11-07T01:18:49.441Z,92.04
2022-11-07T01:21:06.489Z,92.27
2022-11-07T01:23:23.573Z,93.37
2022-11-07T01:25:42.555Z,93.40
2022-11-07T01:27:59.822Z,93.97
2022-11-07T01:30:17.816Z,93.05
2022-11-07T01:32:34.884Z,93.84
2022-11-07T01:34:52.191Z,93.28
2022-11-07T01:37:09.167Z,93.35
2022-11-07T01:39:26.165Z,94.74
2022-11-07T01:41:44.081Z,93.35
2022-11-07T01:44:01.302Z,93.52
2022-11-07T01:46:18.724Z,94.48
2022-11-07T01:48:35.993Z,93.45
2022-11-07T01:50:53.227Z,94.35
2022-11-07T01:53:10.236Z,93.81
2022-11-07T01:55:28.167Z,94.22
2022-11-07T01:57:45.418Z,93.79
2022-11-07T02:00:02.356Z,93.74
2022-11-07T02:02:19.733Z,94.66
2022-11-07T02:04:36.750Z,95.37
2022-11-07T02:06:53.691Z,94.77
2022-11-07T02:09:11.947Z,95.16
2022-11-07T02:11:28.902Z,94.85
2022-11-07T02:13:45.798Z,94.16
2022-11-07T02:16:03.705Z,94.29
2022-11-07T02:18:20.703Z,94.46
2022-11-07T02:20:38.653Z,94.86
2022-11-07T02:22:55.534Z,93.56
2022-11-07T02:25:12.505Z,93.29
2022-11-07T02:27:29.749Z,93.25
2022-11-07T02:29:46.938Z,94.37
2022-11-07T02:32:04.276Z,95.23
2022-11-07T02:34:21.178Z,95.22
2022-11-07T02:36:38.432Z,95.25
2022-11-07T02:38:55.397Z,96.24
2022-11-07T02:41:13.452Z,95.91
2022-11-07T02:43:30.747Z,95.25
2022-11-07T02:45:48.249Z,96.29
2022-11-07T02:48:05.488Z,95.91
2022-11-07T02:50:24.207Z,95.76
2022-11-07T02:52:41.156Z,95.67
2022-11-07T02:54:58.195Z,96.20
2022-11-07T02:57:15.122Z,95.18
2022-11-07T02:59:32.149Z,96.34
2022-11-07T03:01:49.231Z,96.25
2022-11-07T03:04:06.376Z,96.23
2022-11-07T03:06:23.492Z,97.16
2022-11-07T03:08:40.731Z,97.17
2022-11-07T03:10:57.783Z,97.00
2022-11-07T03:13:15.276Z,95.80
2022-11-07T03:15:33.031Z,96.84
2022-11-07T03:17:49.939Z,97.00
2022-11-07T03:20:07.167Z,96.94
2022-11-07T03:22:24.387Z,96.03
2022-11-07T03:24:41.740Z,96.35
2022-11-07T03:26:59.709Z,97.43
2022-11-07T03:29:17.713Z,96.14
2022-11-07T03:31:34.776Z,96.25
2022-11-07T03:33:51.753Z,96.47
2022-11-07T03:36:08.991Z,97.09
2022-11-07T03:38:26.167Z,96.87
2022-11-07T03:40:43.110Z,96.22
2022-11-07T03:43:01.052Z,95.87
2022-11-07T03:45:18.013Z,96.08
2022-11-07T03:47:34.840Z,97.14
2022-11-07T03:49:51.856Z,96.26
2022-11-07T03:52:08.839Z,95.98
2022-11-07T03:54:25.748Z,95.94
2022-11-07T03:56:42.755Z,96.48
2022-11-07T03:58:59.677Z,97.03
2022-11-07T04:01:16.756Z,95.86
2022-11-07T04:03:33.778Z,96.77
2022-11-07T04:05:51.400Z,97.75
2022-11-07T04:08:08.450Z,96.42
2022-11-07T04:10:25.701Z,96.43
2022-11-07T04:12:42.961Z,96.39
2022-11-07T04:14:59.957Z,96.31
2022-11-07T04:17:16.992Z,96.10
2022-11-07T04:19:34.035Z,96.81
2022-11-07T04:21:51.267Z,96.81
2022-11-07T04:24:09.507Z,96.72
2022-11-07T04:26:26.535Z,96.97
2022-11-07T04:28:43.440Z,96.74
2022-11-07T04:31:01.335Z,95.87
2022-11-07T04:33:18.647Z,95.80
2022-11-07T04:35:36.883Z,95.82
2022-11-07T04:37:53.837Z,95.45
2022-11-07T04:40:10.807Z,95.23
2022-11-07T04:42:29.106Z,95.02
2022-11-07T04:44:46.321Z,94.85
2022-11-07T04:47:03.617Z,95.53
2022-11-07T04:49:21.665Z,95.11
2022-11-07T04:51:38.631Z,95.73
2022-11-07T04:53:55.474Z,96.51
2022-11-07T04:56:12.524Z,96.86
2022-11-07T04:58:29.784Z,96.87
2022-11-07T05:00:48.101Z,97.28
2022-11-07T05:03:05.179Z,97.23
2022-11-07T05:05:22.165Z,96.82
2022-11-07T05:07:39.431Z,96.92
2022-11-07T05:09:57.069Z,96.84
2022-11-07T05:12:15.283Z,98.22
2022-11-07T05:14:32.496Z,98.53
2022-11-07T05:16:49.527Z,98.36
2022-11-07T05:19:06.477Z,97.46
2022-11-07T05:21:23.796Z,98.43
2022-11-07T05:23:40.766Z,98.33
2022-11-07T05:25:57.878Z,98.24
2022-11-07T05:28:15.130Z,98.63
2022-11-07T05:30:32.404Z,98.62
2022-11-07T05:32:49.409Z,98.07
2022-11-07T05:35:06.667Z,96.93
2022-11-07T05:37:23.683Z,98.45
2022-11-07T05:39:40.605Z,98.73
2022-11-07T05:41:57.607Z,98.83
2022-11-07T05:44:14.818Z,99.12
2022-11-07T05:46:32.088Z,99.23
2022-11-07T05:48:48.983Z,98.68
2022-11-07T05:51:05.897Z,97.66
2022-11-07T05:53:22.958Z,97.22
2022-11-07T05:55:40.966Z,98.64
2022-11-07T05:57:59.853Z,97.95
2022-11-07T06:00:18.830Z,98.36
2022-11-07T06:02:35.906Z,98.31
2022-11-07T06:04:52.949Z,97.66
2022-11-07T06:07:09.941Z,96.48
2022-11-07T06:09:26.970Z,97.38
2022-11-07T06:11:43.986Z,98.71
2022-11-07T06:14:01.169Z,98.54
2022-11-07T06:16:18.253Z,98.50
2022-11-07T06:18:38.991Z,98.18
2022-11-07T06:20:58.307Z,99.62
2022-11-07T06:23:15.648Z,99.73
2022-11-07T06:25:33.004Z,98.98
2022-11-07T06:27:49.923Z,98.52
2022-11-07T06:30:06.979Z,100.00
2022-11-07T06:32:24.214Z,99.37
2022-11-07T06:34:41.193Z,99.33
2022-11-07T06:37:02.862Z,100.00
2022-11-07T06:39:20.697Z,98.64
2022-11-07T06:41:37.978Z,100.00
2022-11-07T06:43:55.154Z,99.48
2022-11-07T06:46:12.074Z,99.64
2022-11-07T06:48:29.315Z,99.37
2022-11-07T06:50:48.676Z,98.84
2022-11-07T06:53:05.679Z,97.81
2022-11-07T06:55:23.592Z,98.67
2022-11-07T06:57:40.630Z,98.72
2022-11-07T06:59:57.875Z,98.55
2022-11-07T07:02:25.961Z,98.17
2022-11-07T07:04:51.784Z,97.13
2022-11-07T07:07:08.802Z,97.54
2022-11-07T07:09:26.975Z,97.55
2022-11-07T07:11:43.883Z,97.16
2022-11-07T07:14:02.298Z,97.28
2022-11-07T07:16:19.874Z,97.44
2022-11-07T07:18:37.179Z,97.42
2022-11-07T07:20:54.169Z,97.08
2022-11-07T07:23:12.462Z,97.22
2022-11-07T07:25:29.315Z,97.01
2022-11-07T07:27:46.558Z,94.98
2022-11-07T07:30:03.560Z,95.50
2022-11-07T07:32:21.796Z,95.19
2022-11-07T07:34:38.836Z,95.15
2022-11-07T07:36:56.073Z,94.65
2022-11-07T07:39:14.300Z,94.66
2022-11-07T07:41:33.959Z,94.72
2022-11-07T07:43:54.780Z,94.55
2022-11-07T07:46:11.749Z,94.32
2022-11-07T07:48:31.162Z,94.03
2022-11-07T07:50:48.088Z,93.56
2022-11-07T07:53:09.115Z,93.29
2022-11-07T07:55:26.469Z,93.24
2022-11-07T07:57:43.726Z,93.14
2022-11-07T08:00:00.995Z,92.84
2022-11-07T08:02:18.347Z,93.17
2022-11-07T08:04:35.418Z,91.92
2022-11-07T08:06:52.653Z,92.58
2022-11-07T08:09:09.567Z,91.73
2022-11-07T08:11:27.818Z,92.07
2022-11-07T08:13:44.824Z,92.76
2022-11-07T08:16:01.776Z,92.41
2022-11-07T08:18:18.723Z,93.33
2022-11-07T08:20:35.661Z,93.70
2022-11-07T08:22:52.597Z,93.82
2022-11-07T08:25:09.804Z,93.74
2022-11-07T08:27:26.818Z,94.16
2022-11-07T08:29:44.115Z,94.50
2022-11-07T08:32:01.406Z,92.57
2022-11-07T08:34:18.479Z,93.43
2022-11-07T08:36:35.461Z,93.64
2022-11-07T08:38:52.544Z,93.63
2022-11-07T08:41:09.482Z,94.09
2022-11-07T08:43:27.718Z,94.36
2022-11-07T08:45:44.962Z,94.11
2022-11-07T08:48:01.910Z,94.09
2022-11-07T08:50:18.967Z,93.47
2022-11-07T08:52:35.961Z,93.18
2022-11-07T08:54:53.218Z,93.08
2022-11-07T08:57:10.440Z,93.19
2022-11-07T08:59:27.537Z,93.07
2022-11-07T09:02:15.032Z,92.62
2022-11-07T09:04:22.542Z,93.02
2022-11-07T09:06:39.401Z,93.15
2022-11-07T09:08:56.328Z,91.63
2022-11-07T09:11:13.315Z,91.62
2022-11-07T09:13:30.270Z,91.23
2022-11-07T09:15:51.029Z,91.85
2022-11-07T09:18:08.924Z,92.68
2022-11-07T09:20:26.235Z,93.08
2022-11-07T09:22:44.494Z,91.42
2022-11-07T09:25:01.816Z,91.12
2022-11-07T09:27:18.818Z,91.04
2022-11-07T09:29:35.853Z,90.66
2022-11-07T09:31:52.814Z,89.59
2022-11-07T09:34:10.828Z,89.25
2022-11-07T09:36:27.796Z,90.59
2022-11-07T09:38:45.302Z,89.86
2022-11-07T09:41:02.233Z,88.96
2022-11-07T09:43:19.512Z,88.39
2022-11-07T09:45:36.525Z,88.79
2022-11-07T09:47:55.463Z,89.15
2022-11-07T09:50:12.302Z,89.01
2022-11-07T09:52:29.653Z,89.03
2022-11-07T09:54:47.195Z,89.74
2022-11-07T09:57:05.217Z,89.20
2022-11-07T09:59:22.852Z,90.31
2022-11-07T10:01:42.829Z,88.23
2022-11-07T10:06:36.780Z,88.94
2022-11-07T10:08:53.822Z,87.93
2022-11-07T10:11:10.939Z,87.93
2022-11-07T10:13:28.105Z,87.82
2022-11-07T10:15:45.142Z,88.05
2022-11-07T10:18:02.304Z,86.84
2022-11-07T10:20:24.329Z,87.07
2022-11-07T10:22:42.016Z,88.27
2022-11-07T10:25:00.373Z,88.63
2022-11-07T10:27:17.673Z,88.25
2022-11-07T10:29:37.143Z,86.84
2022-11-07T10:31:57.493Z,87.58
2022-11-07T10:34:14.448Z,87.66
2022-11-07T10:36:31.822Z,85.17
2022-11-07T10:38:48.805Z,86.44
2022-11-07T10:41:05.683Z,85.54
2022-11-07T10:43:25.768Z,83.30
2022-11-07T10:45:45.341Z,85.49
2022-11-07T10:48:02.696Z,83.84
2022-11-07T10:50:25.223Z,83.98
2022-11-07T10:52:42.224Z,83.07
2022-11-07T10:54:59.537Z,83.85
2022-11-07T10:57:16.540Z,82.20
2022-11-07T10:59:36.574Z,84.24
2022-11-07T11:01:54.201Z,83.48
2022-11-07T11:04:12.141Z,81.64
2022-11-07T11:06:29.068Z,81.88
2022-11-07T11:08:46.085Z,81.50
2022-11-07T11:11:05.222Z,80.45
2022-11-07T11:13:22.200Z,82.25
2022-11-07T11:15:39.602Z,81.62
2022-11-07T11:17:56.727Z,79.91
2022-11-07T11:20:14.844Z,80.46
2022-11-07T11:22:32.797Z,80.03
2022-11-07T11:24:49.644Z,81.99
2022-11-07T11:27:06.719Z,81.53
2022-11-07T11:29:23.936Z,81.21
2022-11-07T11:31:40.940Z,79.92
2022-11-07T11:33:58.136Z,80.14
2022-11-07T11:36:15.117Z,81.27
2022-11-07T11:38:32.171Z,80.09
2022-11-07T11:40:49.175Z,80.48
2022-11-07T11:43:07.126Z,80.12
2022-11-07T11:45:24.028Z,79.63
2022-11-07T11:47:41.048Z,80.48
2022-11-07T11:49:58.270Z,80.08
2022-11-07T11:52:15.546Z,80.02
2022-11-07T11:54:32.780Z,78.15
2022-11-07T11:56:50.066Z,79.70
2022-11-07T11:59:07.297Z,80.38
2022-11-07T12:03:46.479Z,79.62
2022-11-07T12:06:03.593Z,80.12
2022-11-07T12:08:20.637Z,77.49
2022-11-07T12:10:38.583Z,79.13
2022-11-07T12:12:55.835Z,78.28
2022-11-07T12:15:12.684Z,79.49
2022-11-07T12:17:29.712Z,79.59
2022-11-07T12:19:47.551Z,79.42
2022-11-07T12:28:44.084Z,79.84
2022-11-07T12:31:01.118Z,81.69
2022-11-07T12:33:18.652Z,80.93
2022-11-07T12:35:35.758Z,79.81
2022-11-07T12:37:53.009Z,79.44
2022-11-07T12:40:10.058Z,80.97
2022-11-07T12:42:27.088Z,79.53
2022-11-07T12:44:44.001Z,80.40
2022-11-07T12:47:01.240Z,81.38
2022-11-07T12:49:18.300Z,79.92
2022-11-07T12:51:36.327Z,80.71
2022-11-07T12:53:53.308Z,79.60
2022-11-07T12:56:12.907Z,80.13
2022-11-07T12:58:29.853Z,81.95
2022-11-07T13:00:46.953Z,81.47
2022-11-07T13:03:03.993Z,81.78
2022-11-07T13:05:21.036Z,82.52
2022-11-07T13:07:37.967Z,81.41
2022-11-07T13:09:56.018Z,81.74
2022-11-07T13:12:12.936Z,81.96
2022-11-07T13:14:30.227Z,80.42
2022-11-07T13:16:47.318Z,80.17
2022-11-07T13:19:05.267Z,81.77
2022-11-07T13:21:22.502Z,81.84
2022-11-07T13:23:40.937Z,81.68
2022-11-07T13:25:58.954Z,81.71
2022-11-07T13:28:15.918Z,80.68
2022-11-07T13:30:33.128Z,83.46
2022-11-07T13:32:50.184Z,81.39
2022-11-07T13:35:07.179Z,82.54
2022-11-07T13:37:24.206Z,82.45
2022-11-07T13:39:42.154Z,83.18
2022-11-07T13:41:59.102Z,83.80
2022-11-07T13:44:16.039Z,82.09
2022-11-07T13:46:33.123Z,84.45
2022-11-07T13:48:50.526Z,83.47
2022-11-07T13:51:07.771Z,84.33
2022-11-07T13:53:24.835Z,83.09
2022-11-07T13:55:43.293Z,82.44
2022-11-07T13:58:00.586Z,81.94
2022-11-07T14:00:17.635Z,82.99
2022-11-07T14:02:34.848Z,82.72
2022-11-07T14:05:14.766Z,84.35
2022-11-07T14:07:29.333Z,83.11
2022-11-07T14:09:46.214Z,84.28
2022-11-07T14:12:04.205Z,83.30
2022-11-07T14:14:21.444Z,83.85
2022-11-07T14:16:38.797Z,83.84
2022-11-07T14:18:55.607Z,83.34
2022-11-07T14:21:12.644Z,83.46
2022-11-07T14:23:30.679Z,83.55
2022-11-07T14:25:47.868Z,82.91
2022-11-07T14:28:04.805Z,82.34
2022-11-07T14:30:21.809Z,82.87
2022-11-07T14:32:39.826Z,83.32
2022-11-07T14:34:56.806Z,84.15
2022-11-07T14:37:13.758Z,83.13
2022-11-07T14:39:30.708Z,83.98
2022-11-07T14:41:47.633Z,84.49
2022-11-07T14:44:04.881Z,84.47
2022-11-07T14:46:22.978Z,83.68
2022-11-07T14:48:39.935Z,85.13
2022-11-07T14:50:58.275Z,84.62
2022-11-07T14:53:16.152Z,84.90
2022-11-07T14:55:33.102Z,85.25
2022-11-07T14:57:50.018Z,86.60
2022-11-07T15:00:06.898Z,85.67
2022-11-07T15:02:26.874Z,84.91
2022-11-07T15:04:43.873Z,87.04
2022-11-07T15:07:00.898Z,87.18
2022-11-07T15:09:19.897Z,84.85
2022-11-07T15:11:37.172Z,86.82
2022-11-07T15:13:55.182Z,86.49
2022-11-07T15:16:12.418Z,85.28
2022-11-07T15:18:29.649Z,85.92
2022-11-07T15:20:46.575Z,85.85
2022-11-07T15:23:03.802Z,86.77
2022-11-07T15:25:20.831Z,86.60
2022-11-07T15:27:37.745Z,86.98
2022-11-07T15:29:55.008Z,87.02
2022-11-07T15:32:12.289Z,88.57
2022-11-07T15:34:56.950Z,86.72
2022-11-07T15:37:06.362Z,87.19
2022-11-07T15:39:23.315Z,88.83
2022-11-07T15:41:41.889Z,88.42
2022-11-07T15:43:58.915Z,88.48
2022-11-07T15:46:16.792Z,88.04
2022-11-07T15:48:39.749Z,87.65
2022-11-07T15:50:58.300Z,88.38
2022-11-07T15:53:15.505Z,88.33
2022-11-07T15:55:33.711Z,88.58
2022-11-07T15:57:50.754Z,89.14
2022-11-07T16:00:07.696Z,89.49
2022-11-07T16:02:25.113Z,88.92
2022-11-07T16:04:43.177Z,89.42
2022-11-07T16:07:00.444Z,89.99
2022-11-07T16:09:17.663Z,90.28
2022-11-07T16:11:35.018Z,91.52
2022-11-07T16:13:59.237Z,91.56
2022-11-07T16:16:21.349Z,91.55
2022-11-07T16:18:38.349Z,91.56
2022-11-07T16:20:55.470Z,91.04
2022-11-07T16:23:12.487Z,91.02
2022-11-07T16:25:29.462Z,91.92
2022-11-07T16:27:46.706Z,91.86
2022-11-07T16:30:03.709Z,92.15
2022-11-07T16:32:20.951Z,90.83
2022-11-07T16:34:37.888Z,91.70
2022-11-07T16:36:54.927Z,92.26
2022-11-07T16:39:13.141Z,92.17
2022-11-07T16:41:30.197Z,92.53
2022-11-07T16:43:47.158Z,92.62
2022-11-07T16:46:04.169Z,91.44
2022-11-07T16:48:21.488Z,93.10
2022-11-07T16:50:38.523Z,92.22
2022-11-07T16:52:55.665Z,93.57
2022-11-07T16:55:12.717Z,92.57
2022-11-07T16:57:29.805Z,91.99
2022-11-07T16:59:47.810Z,93.89
2022-11-07T17:02:08.905Z,92.96
2022-11-07T17:04:28.646Z,93.45
2022-11-07T17:06:45.630Z,94.29
2022-11-07T17:09:08.972Z,94.06
2022-11-07T17:11:30.101Z,93.96
2022-11-07T17:13:47.213Z,95.20
2022-11-07T17:16:04.084Z,94.66
2022-11-07T17:18:21.748Z,95.05
2022-11-07T17:20:50.855Z,94.87
2022-11-07T17:23:08.595Z,96.08
2022-11-07T17:25:25.925Z,95.41
2022-11-07T17:27:42.923Z,94.72
2022-11-07T17:30:03.333Z,95.46
2022-11-07T17:32:24.543Z,96.07
2022-11-07T17:34:42.910Z,95.69
2022-11-07T17:36:59.898Z,95.93
2022-11-07T17:39:16.852Z,96.32
2022-11-07T17:41:33.796Z,95.33
2022-11-07T17:43:51.020Z,95.12
2022-11-07T17:46:08.289Z,95.66
2022-11-07T17:48:25.522Z,95.43
2022-11-07T17:50:42.869Z,96.35
2022-11-07T17:53:00.131Z,96.64
2022-11-07T17:55:17.527Z,96.14
2022-11-07T17:57:34.457Z,95.31
2022-11-07T17:59:51.403Z,95.28
2022-11-07T18:02:08.660Z,95.33
2022-11-07T18:04:26.029Z,94.25
2022-11-07T18:06:42.966Z,94.69
2022-11-07T18:09:00.556Z,94.22
2022-11-07T18:11:18.666Z,95.55
2022-11-07T18:13:35.614Z,95.06
2022-11-07T18:15:52.896Z,95.12
2022-11-07T18:18:11.054Z,95.45
2022-11-07T18:20:28.656Z,94.76
2022-11-07T18:22:46.589Z,95.16
2022-11-07T18:25:03.839Z,95.22
2022-11-07T18:27:20.879Z,95.30
2022-11-07T18:29:38.329Z,95.53
2022-11-07T18:31:55.288Z,95.32
2022-11-07T18:34:12.342Z,94.95
2022-11-07T18:36:29.315Z,95.04
2022-11-07T18:38:46.214Z,95.66
2022-11-07T18:41:03.193Z,95.47
2022-11-07T18:43:20.115Z,95.66
2022-11-07T18:45:37.428Z,95.98
2022-11-07T18:47:55.327Z,96.50
2022-11-07T18:50:12.600Z,96.67
2022-11-07T18:52:30.884Z,96.51
2022-11-07T18:54:47.821Z,96.75
2022-11-07T18:57:04.880Z,96.64
2022-11-07T18:59:22.077Z,96.98
2022-11-07T19:01:39.123Z,96.63
2022-11-07T19:03:56.273Z,96.11
2022-11-07T19:06:13.314Z,96.78
2022-11-07T19:08:30.328Z,96.29
2022-11-07T19:10:47.351Z,95.61
2022-11-07T19:13:08.115Z,94.64
2022-11-07T19:15:25.522Z,96.20
2022-11-07T19:17:42.564Z,96.30
2022-11-07T19:19:59.627Z,96.07
2022-11-07T19:22:16.899Z,96.02
2022-11-07T19:24:34.223Z,95.73
2022-11-07T19:26:52.522Z,95.95
2022-11-07T19:29:09.548Z,96.05
2022-11-07T19:31:30.683Z,95.78
2022-11-07T19:33:51.086Z,96.41
2022-11-07T19:36:08.327Z,96.42
2022-11-07T19:38:25.657Z,96.79
2022-11-07T19:40:42.671Z,96.17
2022-11-07T19:42:59.931Z,96.38
2022-11-07T19:45:16.858Z,96.15
2022-11-07T19:47:34.213Z,95.65
2022-11-07T19:49:51.218Z,95.25
2022-11-07T19:52:08.552Z,95.74
2022-11-07T19:54:25.549Z,95.62
2022-11-07T19:56:42.514Z,95.08
2022-11-07T19:58:59.787Z,95.54
2022-11-07T20:01:18.135Z,96.12
2022-11-07T20:03:35.600Z,95.90
2022-11-07T20:05:52.648Z,95.45
2022-11-07T20:08:09.593Z,95.22
2022-11-07T20:10:26.564Z,95.95
2022-11-07T20:12:43.789Z,94.54
2022-11-07T20:15:01.040Z,95.68
2022-11-07T20:17:18.068Z,94.25
2022-11-07T20:19:35.555Z,94.49
2022-11-07T20:21:52.804Z,95.12
2022-11-07T20:24:09.832Z,94.56
2022-11-07T20:26:26.800Z,95.01
2022-11-07T20:28:44.099Z,95.57
2022-11-07T20:31:01.188Z,95.25
2022-11-07T20:33:18.348Z,95.19
2022-11-07T20:35:35.806Z,95.38
2022-11-07T20:37:52.852Z,95.58
2022-11-07T20:40:09.923Z,95.72
2022-11-07T20:42:27.000Z,96.44
2022-11-07T20:44:43.878Z,97.26
2022-11-07T20:47:01.218Z,97.21
2022-11-07T20:49:18.161Z,96.80
2022-11-07T20:51:35.188Z,97.86
2022-11-07T20:53:52.466Z,97.74
2022-11-07T20:56:09.361Z,97.06
2022-11-07T20:58:26.684Z,96.20
2022-11-07T21:00:44.078Z,96.39
2022-11-07T21:03:01.056Z,95.58
2022-11-07T21:05:18.655Z,95.16
2022-11-07T21:07:35.841Z,95.48
2022-11-07T21:09:53.844Z,94.30
2022-11-07T21:12:10.749Z,95.26
2022-11-07T21:14:27.933Z,95.39
2022-11-07T21:16:45.049Z,94.89
2022-11-07T21:19:02.114Z,95.63
2022-11-07T21:21:19.210Z,94.08
2022-11-07T21:23:36.110Z,94.31
2022-11-07T21:25:53.061Z,95.08
2022-11-07T21:28:10.062Z,93.94
2022-11-07T21:30:27.328Z,94.29
2022-11-07T21:32:44.611Z,94.43
2022-11-07T21:35:01.603Z,95.46
2022-11-07T21:37:18.918Z,95.31
2022-11-07T21:39:36.166Z,95.16
2022-11-07T21:41:53.418Z,95.12
2022-11-07T21:44:10.384Z,94.57
2022-11-07T21:46:28.331Z,94.80
2022-11-07T21:48:46.470Z,95.01
2022-11-07T21:51:03.723Z,93.72
2022-11-07T21:53:20.806Z,94.84
2022-11-07T21:55:37.771Z,93.73
2022-11-07T21:57:54.894Z,94.34
2022-11-07T22:00:13.209Z,93.92
2022-11-07T22:02:30.349Z,93.71
2022-11-07T22:04:47.356Z,94.96
2022-11-07T22:07:04.471Z,93.88
2022-11-07T22:09:21.637Z,94.13
2022-11-07T22:11:38.711Z,94.82
2022-11-07T22:13:55.635Z,94.85
2022-11-07T22:16:12.713Z,94.03
2022-11-07T22:18:29.940Z,93.31
2022-11-07T22:20:47.340Z,94.72
2022-11-07T22:23:04.689Z,94.61
2022-11-07T22:25:22.584Z,93.53
2022-11-07T22:27:39.804Z,94.09
2022-11-07T22:29:56.722Z,93.86
2022-11-07T22:32:13.762Z,93.93
2022-11-07T22:34:30.838Z,93.88
2022-11-07T22:36:48.135Z,94.00
2022-11-07T22:39:05.148Z,94.20
2022-11-07T22:41:23.027Z,93.85
2022-11-07T22:43:40.017Z,93.93
2022-11-07T22:45:57.040Z,94.30
2022-11-07T22:48:14.140Z,94.47
2022-11-07T22:50:32.823Z,95.14
2022-11-07T22:52:49.858Z,94.95
2022-11-07T22:55:06.933Z,95.52
2022-11-07T22:57:25.251Z,96.08
2022-11-07T22:59:42.375Z,95.33
2022-11-07T23:02:00.482Z,96.62
2022-11-07T23:04:17.598Z,96.68
2022-11-07T23:06:37.179Z,96.72
2022-11-07T23:08:54.231Z,96.34
2022-11-07T23:11:44.805Z,95.36
2022-11-07T23:13:48.640Z,96.35
2022-11-07T23:16:05.714Z,95.40
2022-11-07T23:18:24.691Z,95.60
2022-11-07T23:20:42.019Z,95.81
2022-11-07T23:22:59.018Z,94.93
2022-11-07T23:25:16.241Z,95.35
2022-11-07T23:27:33.179Z,95.38
2022-11-07T23:29:51.065Z,95.53
2022-11-07T23:32:08.319Z,95.24
2022-11-07T23:34:25.613Z,95.68
2022-11-07T23:36:42.743Z,95.11
2022-11-07T23:38:59.814Z,95.49
2022-11-07T23:41:17.710Z,95.20
2022-11-07T23:43:34.884Z,95.38
2022-11-07T23:45:52.945Z,95.87
2022-11-07T23:48:12.668Z,95.91
2022-11-07T23:50:29.788Z,95.55
2022-11-07T23:52:46.928Z,95.96
2022-11-07T23:55:04.167Z,95.73
2022-11-07T23:57:21.638Z,96.01
2022-11-07T23:59:39.971Z,95.93
